sensor_id;sensor_type;location;lat;lon;timestamp;pressure;altitude;pressure_sealevel;temperature
7882;BMP180;3986;41.884;23.466;2022-08-19T05:58:44;92017.00;;;18.90
7882;BMP180;3986;41.884;23.466;2022-08-19T06:01:14;92016.00;;;19.60
7882;BMP180;3986;41.884;23.466;2022-08-19T06:03:41;92004.00;;;20.10
7882;BMP180;3986;41.884;23.466;2022-08-19T06:06:09;92001.00;;;20.40
7882;BMP180;3986;41.884;23.466;2022-08-19T06:08:36;92005.00;;;20.70
7882;BMP180;3986;41.884;23.466;2022-08-19T06:11:15;91999.00;;;20.80
7882;BMP180;3986;41.884;23.466;2022-08-19T06:13:45;91997.00;;;21.30
7882;BMP180;3986;41.884;23.466;2022-08-19T06:16:13;91999.00;;;21.40
7882;BMP180;3986;41.884;23.466;2022-08-19T06:18:44;92000.00;;;21.70
7882;BMP180;3986;41.884;23.466;2022-08-19T06:21:11;91996.00;;;21.70
7882;BMP180;3986;41.884;23.466;2022-08-19T06:23:39;92004.00;;;22.00
7882;BMP180;3986;41.884;23.466;2022-08-19T06:26:05;91997.00;;;22.50
7882;BMP180;3986;41.884;23.466;2022-08-19T06:28:33;91993.00;;;22.70
7882;BMP180;3986;41.884;23.466;2022-08-19T06:31:07;92004.00;;;22.80
7882;BMP180;3986;41.884;23.466;2022-08-19T06:33:34;91992.00;;;22.80
7882;BMP180;3986;41.884;23.466;2022-08-19T06:36:00;91995.00;;;23.10
7882;BMP180;3986;41.884;23.466;2022-08-19T06:38:27;92002.00;;;23.20
7882;BMP180;3986;41.884;23.466;2022-08-19T06:41:00;91991.00;;;23.00
7882;BMP180;3986;41.884;23.466;2022-08-19T06:43:27;91994.00;;;22.20
7882;BMP180;3986;41.884;23.466;2022-08-19T06:45:54;91982.00;;;22.80
7882;BMP180;3986;41.884;23.466;2022-08-19T06:48:23;91993.00;;;23.40
7882;BMP180;3986;41.884;23.466;2022-08-19T06:50:50;91994.00;;;23.90
7882;BMP180;3986;41.884;23.466;2022-08-19T06:53:17;91994.00;;;23.80
7882;BMP180;3986;41.884;23.466;2022-08-19T06:55:44;91987.00;;;24.00
7882;BMP180;3986;41.884;23.466;2022-08-19T06:58:11;91995.00;;;24.30
7882;BMP180;3986;41.884;23.466;2022-08-19T07:00:38;91986.00;;;24.50
7882;BMP180;3986;41.884;23.466;2022-08-19T07:03:06;91983.00;;;24.30
7882;BMP180;3986;41.884;23.466;2022-08-19T07:05:38;91994.00;;;24.60
7882;BMP180;3986;41.884;23.466;2022-08-19T07:08:05;91985.00;;;24.80
7882;BMP180;3986;41.884;23.466;2022-08-19T07:10:33;91983.00;;;25.00
7882;BMP180;3986;41.884;23.466;2022-08-19T07:13:00;91981.00;;;25.30
7882;BMP180;3986;41.884;23.466;2022-08-19T07:15:27;91957.00;;;25.60
7882;BMP180;3986;41.884;23.466;2022-08-19T07:17:55;91986.00;;;25.40
7882;BMP180;3986;41.884;23.466;2022-08-19T07:20:22;91960.00;;;25.20
7882;BMP180;3986;41.884;23.466;2022-08-19T07:22:50;91984.00;;;25.80
7882;BMP180;3986;41.884;23.466;2022-08-19T07:25:17;91992.00;;;26.10
7882;BMP180;3986;41.884;23.466;2022-08-19T07:27:48;91996.00;;;26.10
7882;BMP180;3986;41.884;23.466;2022-08-19T07:30:16;91995.00;;;26.40
7882;BMP180;3986;41.884;23.466;2022-08-19T07:32:43;91995.00;;;25.80
7882;BMP180;3986;41.884;23.466;2022-08-19T07:35:10;91993.00;;;26.70
7882;BMP180;3986;41.884;23.466;2022-08-19T07:37:37;91989.00;;;26.90
7882;BMP180;3986;41.884;23.466;2022-08-19T07:40:11;92000.00;;;27.00
7882;BMP180;3986;41.884;23.466;2022-08-19T07:42:38;92003.00;;;26.60
7882;BMP180;3986;41.884;23.466;2022-08-19T07:45:06;91984.00;;;25.80
7882;BMP180;3986;41.884;23.466;2022-08-19T07:47:33;91987.00;;;25.70
7882;BMP180;3986;41.884;23.466;2022-08-19T07:50:01;92002.00;;;26.40
7882;BMP180;3986;41.884;23.466;2022-08-19T07:52:30;91993.00;;;27.10
7882;BMP180;3986;41.884;23.466;2022-08-19T07:54:57;91994.00;;;26.70
7882;BMP180;3986;41.884;23.466;2022-08-19T07:57:26;91975.00;;;27.40
7882;BMP180;3986;41.884;23.466;2022-08-19T07:59:53;91990.00;;;27.90
7882;BMP180;3986;41.884;23.466;2022-08-19T08:02:21;91988.00;;;28.20
7882;BMP180;3986;41.884;23.466;2022-08-19T08:04:48;91894.00;;;27.60
7882;BMP180;3986;41.884;23.466;2022-08-19T08:07:32;91983.00;;;28.70
7882;BMP180;3986;41.884;23.466;2022-08-19T08:10:16;91987.00;;;29.00
7882;BMP180;3986;41.884;23.466;2022-08-19T08:12:45;91974.00;;;27.70
7882;BMP180;3986;41.884;23.466;2022-08-19T08:15:14;91977.00;;;27.90
7882;BMP180;3986;41.884;23.466;2022-08-19T08:17:44;91987.00;;;29.00
7882;BMP180;3986;41.884;23.466;2022-08-19T08:20:12;91982.00;;;29.60
7882;BMP180;3986;41.884;23.466;2022-08-19T08:22:43;91984.00;;;29.20
7882;BMP180;3986;41.884;23.466;2022-08-19T08:25:27;91972.00;;;29.40
7882;BMP180;3986;41.884;23.466;2022-08-19T08:27:56;91969.00;;;30.00
7882;BMP180;3986;41.884;23.466;2022-08-19T08:30:25;91971.00;;;29.90
7882;BMP180;3986;41.884;23.466;2022-08-19T08:32:53;91955.00;;;30.60
7882;BMP180;3986;41.884;23.466;2022-08-19T08:35:22;91977.00;;;31.20
7882;BMP180;3986;41.884;23.466;2022-08-19T08:37:51;91948.00;;;31.20
7882;BMP180;3986;41.884;23.466;2022-08-19T08:40:22;91966.00;;;30.80
7882;BMP180;3986;41.884;23.466;2022-08-19T08:42:57;91931.00;;;30.30
7882;BMP180;3986;41.884;23.466;2022-08-19T08:45:26;91971.00;;;30.60
7882;BMP180;3986;41.884;23.466;2022-08-19T08:47:57;91956.00;;;31.10
7882;BMP180;3986;41.884;23.466;2022-08-19T08:50:32;91949.00;;;30.90
7882;BMP180;3986;41.884;23.466;2022-08-19T08:53:02;91953.00;;;31.90
7882;BMP180;3986;41.884;23.466;2022-08-19T08:55:30;91941.00;;;30.80
7882;BMP180;3986;41.884;23.466;2022-08-19T08:58:03;91944.00;;;31.10
7882;BMP180;3986;41.884;23.466;2022-08-19T09:00:34;91947.00;;;31.80
7882;BMP180;3986;41.884;23.466;2022-08-19T09:03:03;91940.00;;;31.60
7882;BMP180;3986;41.884;23.466;2022-08-19T09:05:36;91942.00;;;32.80
7882;BMP180;3986;41.884;23.466;2022-08-19T09:08:08;91936.00;;;32.90
7882;BMP180;3986;41.884;23.466;2022-08-19T09:10:43;91937.00;;;33.00
7882;BMP180;3986;41.884;23.466;2022-08-19T09:13:19;91939.00;;;35.20
7882;BMP180;3986;41.884;23.466;2022-08-19T09:15:54;91957.00;;;35.40
7882;BMP180;3986;41.884;23.466;2022-08-19T09:18:23;91939.00;;;34.30
7882;BMP180;3986;41.884;23.466;2022-08-19T09:20:50;91936.00;;;37.90
7882;BMP180;3986;41.884;23.466;2022-08-19T09:23:17;91924.00;;;35.40
7882;BMP180;3986;41.884;23.466;2022-08-19T09:25:45;91927.00;;;36.20
7882;BMP180;3986;41.884;23.466;2022-08-19T09:28:13;91930.00;;;41.70
7882;BMP180;3986;41.884;23.466;2022-08-19T09:30:41;91932.00;;;38.50
7882;BMP180;3986;41.884;23.466;2022-08-19T09:33:08;91927.00;;;40.60
7882;BMP180;3986;41.884;23.466;2022-08-19T09:35:35;91918.00;;;45.10
7882;BMP180;3986;41.884;23.466;2022-08-19T09:38:02;91932.00;;;42.00
7882;BMP180;3986;41.884;23.466;2022-08-19T09:40:30;91941.00;;;41.00
7882;BMP180;3986;41.884;23.466;2022-08-19T09:42:57;91925.00;;;41.80
7882;BMP180;3986;41.884;23.466;2022-08-19T09:45:29;91933.00;;;40.30
7882;BMP180;3986;41.884;23.466;2022-08-19T09:47:56;91920.00;;;41.80
7882;BMP180;3986;41.884;23.466;2022-08-19T09:50:24;91942.00;;;44.20
7882;BMP180;3986;41.884;23.466;2022-08-19T09:52:51;91939.00;;;41.00
7882;BMP180;3986;41.884;23.466;2022-08-19T09:55:22;91917.00;;;39.70
7882;BMP180;3986;41.884;23.466;2022-08-19T09:57:49;91915.00;;;41.70
7882;BMP180;3986;41.884;23.466;2022-08-19T10:00:16;91873.00;;;39.80
7882;BMP180;3986;41.884;23.466;2022-08-19T10:03:04;91911.00;;;41.70
7882;BMP180;3986;41.884;23.466;2022-08-19T10:05:31;91908.00;;;42.80
7882;BMP180;3986;41.884;23.466;2022-08-19T10:08:18;91911.00;;;43.40
7882;BMP180;3986;41.884;23.466;2022-08-19T10:10:46;91914.00;;;42.40
7882;BMP180;3986;41.884;23.466;2022-08-19T10:13:15;91900.00;;;42.50
7882;BMP180;3986;41.884;23.466;2022-08-19T10:15:42;91905.00;;;39.90
7882;BMP180;3986;41.884;23.466;2022-08-19T10:18:11;91896.00;;;42.90
7882;BMP180;3986;41.884;23.466;2022-08-19T10:20:38;91901.00;;;42.10
7882;BMP180;3986;41.884;23.466;2022-08-19T10:23:07;91901.00;;;40.50
7882;BMP180;3986;41.884;23.466;2022-08-19T10:25:34;91852.00;;;41.50
7882;BMP180;3986;41.884;23.466;2022-08-19T10:28:01;91904.00;;;42.20
7882;BMP180;3986;41.884;23.466;2022-08-19T10:30:28;91904.00;;;42.80
7882;BMP180;3986;41.884;23.466;2022-08-19T10:32:55;91889.00;;;40.70
7882;BMP180;3986;41.884;23.466;2022-08-19T10:35:24;91895.00;;;41.50
7882;BMP180;3986;41.884;23.466;2022-08-19T10:37:52;91901.00;;;40.90
7882;BMP180;3986;41.884;23.466;2022-08-19T10:40:19;91895.00;;;39.50
7882;BMP180;3986;41.884;23.466;2022-08-19T10:42:46;91896.00;;;41.00
7882;BMP180;3986;41.884;23.466;2022-08-19T10:45:13;91888.00;;;38.00
7882;BMP180;3986;41.884;23.466;2022-08-19T10:47:39;91904.00;;;39.70
7882;BMP180;3986;41.884;23.466;2022-08-19T10:50:07;91886.00;;;40.60
7882;BMP180;3986;41.884;23.466;2022-08-19T10:52:53;91905.00;;;41.10
7882;BMP180;3986;41.884;23.466;2022-08-19T10:55:22;91890.00;;;42.10
7882;BMP180;3986;41.884;23.466;2022-08-19T10:58:11;91887.00;;;39.80
7882;BMP180;3986;41.884;23.466;2022-08-19T11:00:39;91885.00;;;40.30
7882;BMP180;3986;41.884;23.466;2022-08-19T11:03:07;91894.00;;;40.40
7882;BMP180;3986;41.884;23.466;2022-08-19T11:05:35;91879.00;;;41.20
7882;BMP180;3986;41.884;23.466;2022-08-19T11:08:04;91878.00;;;40.20
7882;BMP180;3986;41.884;23.466;2022-08-19T11:10:32;91874.00;;;40.30
7882;BMP180;3986;41.884;23.466;2022-08-19T11:12:59;91866.00;;;41.80
7882;BMP180;3986;41.884;23.466;2022-08-19T11:15:26;91871.00;;;38.40
7882;BMP180;3986;41.884;23.466;2022-08-19T11:17:54;91863.00;;;39.00
7882;BMP180;3986;41.884;23.466;2022-08-19T11:20:21;91852.00;;;38.10
7882;BMP180;3986;41.884;23.466;2022-08-19T11:22:51;91869.00;;;37.60
7882;BMP180;3986;41.884;23.466;2022-08-19T11:25:19;91860.00;;;36.80
7882;BMP180;3986;41.884;23.466;2022-08-19T11:27:47;91788.00;;;39.00
7882;BMP180;3986;41.884;23.466;2022-08-19T11:30:16;91852.00;;;38.30
7882;BMP180;3986;41.884;23.466;2022-08-19T11:32:43;91856.00;;;41.40
7882;BMP180;3986;41.884;23.466;2022-08-19T11:35:10;91854.00;;;41.30
7882;BMP180;3986;41.884;23.466;2022-08-19T11:37:37;91786.00;;;38.10
7882;BMP180;3986;41.884;23.466;2022-08-19T11:40:06;91848.00;;;37.70
7882;BMP180;3986;41.884;23.466;2022-08-19T11:42:34;91842.00;;;40.70
7882;BMP180;3986;41.884;23.466;2022-08-19T11:45:18;91836.00;;;41.20
7882;BMP180;3986;41.884;23.466;2022-08-19T11:47:45;91841.00;;;38.80
7882;BMP180;3986;41.884;23.466;2022-08-19T11:50:12;91846.00;;;38.20
7882;BMP180;3986;41.884;23.466;2022-08-19T11:52:39;91834.00;;;38.40
7882;BMP180;3986;41.884;23.466;2022-08-19T11:55:08;91832.00;;;39.80
7882;BMP180;3986;41.884;23.466;2022-08-19T11:57:36;91823.00;;;41.30
7882;BMP180;3986;41.884;23.466;2022-08-19T12:00:04;91829.00;;;41.30
7882;BMP180;3986;41.884;23.466;2022-08-19T12:02:32;91820.00;;;38.50
7882;BMP180;3986;41.884;23.466;2022-08-19T12:04:59;91823.00;;;38.30
7882;BMP180;3986;41.884;23.466;2022-08-19T12:07:27;91818.00;;;38.60
7882;BMP180;3986;41.884;23.466;2022-08-19T12:09:54;91823.00;;;38.80
7882;BMP180;3986;41.884;23.466;2022-08-19T12:12:21;91823.00;;;39.80
7882;BMP180;3986;41.884;23.466;2022-08-19T12:14:51;91799.00;;;39.30
7882;BMP180;3986;41.884;23.466;2022-08-19T12:17:22;91813.00;;;39.50
7882;BMP180;3986;41.884;23.466;2022-08-19T12:19:49;91808.00;;;39.90
7882;BMP180;3986;41.884;23.466;2022-08-19T12:22:16;91797.00;;;38.60
7882;BMP180;3986;41.884;23.466;2022-08-19T12:24:43;91800.00;;;37.70
7882;BMP180;3986;41.884;23.466;2022-08-19T12:27:10;91797.00;;;36.30
7882;BMP180;3986;41.884;23.466;2022-08-19T12:29:37;91787.00;;;36.50
7882;BMP180;3986;41.884;23.466;2022-08-19T12:32:05;91793.00;;;37.80
7882;BMP180;3986;41.884;23.466;2022-08-19T12:34:34;91788.00;;;38.80
7882;BMP180;3986;41.884;23.466;2022-08-19T12:37:04;91770.00;;;37.90
7882;BMP180;3986;41.884;23.466;2022-08-19T12:39:34;91778.00;;;36.80
7882;BMP180;3986;41.884;23.466;2022-08-19T12:42:02;91785.00;;;35.80
7882;BMP180;3986;41.884;23.466;2022-08-19T12:44:29;91787.00;;;35.10
7882;BMP180;3986;41.884;23.466;2022-08-19T12:46:58;91775.00;;;34.80
7882;BMP180;3986;41.884;23.466;2022-08-19T12:49:27;91775.00;;;35.60
7882;BMP180;3986;41.884;23.466;2022-08-19T12:51:54;91778.00;;;34.20
7882;BMP180;3986;41.884;23.466;2022-08-19T12:54:21;91774.00;;;35.10
7882;BMP180;3986;41.884;23.466;2022-08-19T12:56:48;91781.00;;;36.10
7882;BMP180;3986;41.884;23.466;2022-08-19T12:59:15;91779.00;;;34.50
7882;BMP180;3986;41.884;23.466;2022-08-19T13:01:43;91772.00;;;35.10
7882;BMP180;3986;41.884;23.466;2022-08-19T13:04:10;91771.00;;;34.40
7882;BMP180;3986;41.884;23.466;2022-08-19T13:06:38;91769.00;;;33.50
7882;BMP180;3986;41.884;23.466;2022-08-19T13:09:05;91705.00;;;33.70
7882;BMP180;3986;41.884;23.466;2022-08-19T13:11:32;91767.00;;;33.40
7882;BMP180;3986;41.884;23.466;2022-08-19T13:14:00;91765.00;;;33.30
7882;BMP180;3986;41.884;23.466;2022-08-19T13:16:28;91761.00;;;33.60
7882;BMP180;3986;41.884;23.466;2022-08-19T13:18:55;91753.00;;;33.20
7882;BMP180;3986;41.884;23.466;2022-08-19T13:21:24;91763.00;;;34.50
7882;BMP180;3986;41.884;23.466;2022-08-19T13:23:53;91765.00;;;34.00
7882;BMP180;3986;41.884;23.466;2022-08-19T13:26:20;91759.00;;;34.40
7882;BMP180;3986;41.884;23.466;2022-08-19T13:28:48;91753.00;;;33.90
7882;BMP180;3986;41.884;23.466;2022-08-19T13:31:34;91755.00;;;34.00
7882;BMP180;3986;41.884;23.466;2022-08-19T13:34:27;91758.00;;;34.00
7882;BMP180;3986;41.884;23.466;2022-08-19T13:36:55;91749.00;;;33.90
7882;BMP180;3986;41.884;23.466;2022-08-19T13:39:24;91764.00;;;34.50
7882;BMP180;3986;41.884;23.466;2022-08-19T13:41:50;91762.00;;;33.90
7882;BMP180;3986;41.884;23.466;2022-08-19T13:44:17;91760.00;;;34.00
7882;BMP180;3986;41.884;23.466;2022-08-19T13:46:44;91756.00;;;34.40
7882;BMP180;3986;41.884;23.466;2022-08-19T13:49:12;91736.00;;;34.10
7882;BMP180;3986;41.884;23.466;2022-08-19T13:51:41;91749.00;;;34.20
7882;BMP180;3986;41.884;23.466;2022-08-19T13:54:09;91746.00;;;33.70
7882;BMP180;3986;41.884;23.466;2022-08-19T13:56:41;91748.00;;;33.80
7882;BMP180;3986;41.884;23.466;2022-08-19T13:59:08;91745.00;;;34.20
7882;BMP180;3986;41.884;23.466;2022-08-19T14:01:35;91743.00;;;33.60
7882;BMP180;3986;41.884;23.466;2022-08-19T14:04:03;91743.00;;;33.60
7882;BMP180;3986;41.884;23.466;2022-08-19T14:06:31;91748.00;;;33.60
7882;BMP180;3986;41.884;23.466;2022-08-19T14:08:58;91737.00;;;33.20
7882;BMP180;3986;41.884;23.466;2022-08-19T14:11:27;91744.00;;;33.10
7882;BMP180;3986;41.884;23.466;2022-08-19T14:13:55;91743.00;;;33.20
7882;BMP180;3986;41.884;23.466;2022-08-19T14:16:22;91742.00;;;33.40
7882;BMP180;3986;41.884;23.466;2022-08-19T14:18:50;91743.00;;;33.70
7882;BMP180;3986;41.884;23.466;2022-08-19T14:21:19;91735.00;;;33.50
7882;BMP180;3986;41.884;23.466;2022-08-19T14:23:47;91736.00;;;33.40
7882;BMP180;3986;41.884;23.466;2022-08-19T14:26:16;91737.00;;;33.40
7882;BMP180;3986;41.884;23.466;2022-08-19T14:28:44;91726.00;;;33.00
7882;BMP180;3986;41.884;23.466;2022-08-19T14:31:15;91742.00;;;33.10
7882;BMP180;3986;41.884;23.466;2022-08-19T14:33:43;91740.00;;;33.60
7882;BMP180;3986;41.884;23.466;2022-08-19T14:36:10;91726.00;;;33.00
7882;BMP180;3986;41.884;23.466;2022-08-19T14:38:37;91718.00;;;32.80
7882;BMP180;3986;41.884;23.466;2022-08-19T14:41:13;91737.00;;;32.80
7882;BMP180;3986;41.884;23.466;2022-08-19T14:43:42;91723.00;;;32.60
7882;BMP180;3986;41.884;23.466;2022-08-19T14:46:20;91720.00;;;32.90
7882;BMP180;3986;41.884;23.466;2022-08-19T14:48:48;91726.00;;;33.20
7882;BMP180;3986;41.884;23.466;2022-08-19T14:51:16;91721.00;;;33.20
7882;BMP180;3986;41.884;23.466;2022-08-19T14:53:43;91661.00;;;32.90
7882;BMP180;3986;41.884;23.466;2022-08-19T14:56:11;91722.00;;;32.90
7882;BMP180;3986;41.884;23.466;2022-08-19T14:58:39;91729.00;;;32.70
7882;BMP180;3986;41.884;23.466;2022-08-19T15:01:06;91721.00;;;32.90
7882;BMP180;3986;41.884;23.466;2022-08-19T15:03:35;91706.00;;;32.60
7882;BMP180;3986;41.884;23.466;2022-08-19T15:06:03;91725.00;;;32.80
7882;BMP180;3986;41.884;23.466;2022-08-19T15:08:33;91643.00;;;32.50
7882;BMP180;3986;41.884;23.466;2022-08-19T15:11:03;91710.00;;;32.40
7882;BMP180;3986;41.884;23.466;2022-08-19T15:13:34;91713.00;;;32.20
7882;BMP180;3986;41.884;23.466;2022-08-19T15:16:02;91713.00;;;32.30
7882;BMP180;3986;41.884;23.466;2022-08-19T15:18:29;91713.00;;;32.30
7882;BMP180;3986;41.884;23.466;2022-08-19T15:20:57;91730.00;;;32.10
7882;BMP180;3986;41.884;23.466;2022-08-19T15:23:25;91715.00;;;32.00
7882;BMP180;3986;41.884;23.466;2022-08-19T15:25:51;91713.00;;;32.00
7882;BMP180;3986;41.884;23.466;2022-08-19T15:28:20;91703.00;;;31.90
7882;BMP180;3986;41.884;23.466;2022-08-19T15:30:47;91714.00;;;32.20
7882;BMP180;3986;41.884;23.466;2022-08-19T15:33:15;91706.00;;;31.70
7882;BMP180;3986;41.884;23.466;2022-08-19T15:35:45;91705.00;;;31.80
7882;BMP180;3986;41.884;23.466;2022-08-19T15:38:14;91687.00;;;31.90
7882;BMP180;3986;41.884;23.466;2022-08-19T15:40:41;91707.00;;;31.80
7882;BMP180;3986;41.884;23.466;2022-08-19T15:43:08;91700.00;;;31.90
7882;BMP180;3986;41.884;23.466;2022-08-19T15:45:36;91714.00;;;31.70
7882;BMP180;3986;41.884;23.466;2022-08-19T15:48:04;91701.00;;;31.80
7882;BMP180;3986;41.884;23.466;2022-08-19T15:50:31;91707.00;;;31.80
7882;BMP180;3986;41.884;23.466;2022-08-19T15:53:00;91705.00;;;31.70
7882;BMP180;3986;41.884;23.466;2022-08-19T15:55:31;91701.00;;;31.50
7882;BMP180;3986;41.884;23.466;2022-08-19T15:57:59;91710.00;;;31.40
7882;BMP180;3986;41.884;23.466;2022-08-19T16:00:43;91699.00;;;31.20
7882;BMP180;3986;41.884;23.466;2022-08-19T16:03:27;91693.00;;;31.10
7882;BMP180;3986;41.884;23.466;2022-08-19T16:06:12;91699.00;;;31.10
7882;BMP180;3986;41.884;23.466;2022-08-19T16:08:51;91698.00;;;31.10
7882;BMP180;3986;41.884;23.466;2022-08-19T16:11:22;91702.00;;;31.00
7882;BMP180;3986;41.884;23.466;2022-08-19T16:13:51;91701.00;;;30.80
7882;BMP180;3986;41.884;23.466;2022-08-19T16:16:19;91629.00;;;30.40
7882;BMP180;3986;41.884;23.466;2022-08-19T16:18:46;91714.00;;;30.80
7882;BMP180;3986;41.884;23.466;2022-08-19T16:21:14;91706.00;;;30.70
7882;BMP180;3986;41.884;23.466;2022-08-19T16:23:43;91718.00;;;30.70
7882;BMP180;3986;41.884;23.466;2022-08-19T16:26:11;91700.00;;;30.60
7882;BMP180;3986;41.884;23.466;2022-08-19T16:28:40;91715.00;;;30.70
7882;BMP180;3986;41.884;23.466;2022-08-19T16:31:08;91654.00;;;30.30
7882;BMP180;3986;41.884;23.466;2022-08-19T16:33:35;91704.00;;;30.40
7882;BMP180;3986;41.884;23.466;2022-08-19T16:36:02;91708.00;;;30.20
7882;BMP180;3986;41.884;23.466;2022-08-19T16:38:31;91710.00;;;30.10
7882;BMP180;3986;41.884;23.466;2022-08-19T16:40:59;91708.00;;;30.30
7882;BMP180;3986;41.884;23.466;2022-08-19T16:43:27;91711.00;;;30.20
7882;BMP180;3986;41.884;23.466;2022-08-19T16:45:56;91722.00;;;29.90
7882;BMP180;3986;41.884;23.466;2022-08-19T16:48:25;91725.00;;;30.00
7882;BMP180;3986;41.884;23.466;2022-08-19T16:50:54;91717.00;;;29.70
7882;BMP180;3986;41.884;23.466;2022-08-19T16:53:23;91720.00;;;29.60
7882;BMP180;3986;41.884;23.466;2022-08-19T16:55:53;91717.00;;;29.30
7882;BMP180;3986;41.884;23.466;2022-08-19T16:58:22;91717.00;;;29.20
7882;BMP180;3986;41.884;23.466;2022-08-19T17:00:50;91726.00;;;29.00
7882;BMP180;3986;41.884;23.466;2022-08-19T17:03:19;91721.00;;;29.10
7882;BMP180;3986;41.884;23.466;2022-08-19T17:05:50;91743.00;;;29.00
7882;BMP180;3986;41.884;23.466;2022-08-19T17:08:18;91728.00;;;28.70
7882;BMP180;3986;41.884;23.466;2022-08-19T17:10:46;91730.00;;;28.60
7882;BMP180;3986;41.884;23.466;2022-08-19T17:13:13;91734.00;;;28.70
7882;BMP180;3986;41.884;23.466;2022-08-19T17:15:41;91742.00;;;28.50
7882;BMP180;3986;41.884;23.466;2022-08-19T17:18:10;91744.00;;;28.40
7882;BMP180;3986;41.884;23.466;2022-08-19T17:20:40;91746.00;;;28.50
7882;BMP180;3986;41.884;23.466;2022-08-19T17:23:07;91738.00;;;28.70
7882;BMP180;3986;41.884;23.466;2022-08-19T17:25:35;91737.00;;;28.60
7882;BMP180;3986;41.884;23.466;2022-08-19T17:28:07;91756.00;;;28.70
7882;BMP180;3986;41.884;23.466;2022-08-19T17:30:34;91751.00;;;28.80
7882;BMP180;3986;41.884;23.466;2022-08-19T17:33:01;91759.00;;;28.80
7882;BMP180;3986;41.884;23.466;2022-08-19T17:35:28;91698.00;;;28.60
7882;BMP180;3986;41.884;23.466;2022-08-19T17:37:57;91731.00;;;28.50
7882;BMP180;3986;41.884;23.466;2022-08-19T17:40:24;91715.00;;;28.60
7882;BMP180;3986;41.884;23.466;2022-08-19T17:42:51;91748.00;;;28.20
7882;BMP180;3986;41.884;23.466;2022-08-19T17:45:19;91777.00;;;28.30
7882;BMP180;3986;41.884;23.466;2022-08-19T17:47:46;91772.00;;;28.30
7882;BMP180;3986;41.884;23.466;2022-08-19T17:50:14;91780.00;;;28.40
7882;BMP180;3986;41.884;23.466;2022-08-19T17:52:41;91792.00;;;28.40
7882;BMP180;3986;41.884;23.466;2022-08-19T17:55:10;91790.00;;;27.90
7882;BMP180;3986;41.884;23.466;2022-08-19T17:57:37;91787.00;;;28.00
7882;BMP180;3986;41.884;23.466;2022-08-19T18:00:07;91800.00;;;28.20
7882;BMP180;3986;41.884;23.466;2022-08-19T18:02:43;91808.00;;;27.40
7882;BMP180;3986;41.884;23.466;2022-08-19T18:05:10;91808.00;;;27.60
7882;BMP180;3986;41.884;23.466;2022-08-19T18:07:38;91810.00;;;27.80
7882;BMP180;3986;41.884;23.466;2022-08-19T18:10:05;91816.00;;;27.80
7882;BMP180;3986;41.884;23.466;2022-08-19T18:12:34;91835.00;;;28.00
7882;BMP180;3986;41.884;23.466;2022-08-19T18:15:03;91824.00;;;27.70
7882;BMP180;3986;41.884;23.466;2022-08-19T18:17:30;91827.00;;;27.40
7882;BMP180;3986;41.884;23.466;2022-08-19T18:19:58;91830.00;;;27.50
7882;BMP180;3986;41.884;23.466;2022-08-19T18:22:26;91796.00;;;27.50
7882;BMP180;3986;41.884;23.466;2022-08-19T18:24:54;91833.00;;;27.50
7882;BMP180;3986;41.884;23.466;2022-08-19T18:27:21;91837.00;;;27.50
7882;BMP180;3986;41.884;23.466;2022-08-19T18:29:49;91840.00;;;27.50
7882;BMP180;3986;41.884;23.466;2022-08-19T18:32:17;91835.00;;;27.50
7882;BMP180;3986;41.884;23.466;2022-08-19T18:34:44;91823.00;;;27.30
7882;BMP180;3986;41.884;23.466;2022-08-19T18:37:11;91850.00;;;27.30
7882;BMP180;3986;41.884;23.466;2022-08-19T18:39:38;91850.00;;;27.10
7882;BMP180;3986;41.884;23.466;2022-08-19T18:42:23;91851.00;;;27.10
7882;BMP180;3986;41.884;23.466;2022-08-19T18:45:09;91859.00;;;27.00
7882;BMP180;3986;41.884;23.466;2022-08-19T18:47:53;91854.00;;;27.10
7882;BMP180;3986;41.884;23.466;2022-08-19T18:50:38;91845.00;;;26.70
7882;BMP180;3986;41.884;23.466;2022-08-19T18:53:07;91853.00;;;26.80
7882;BMP180;3986;41.884;23.466;2022-08-19T18:55:34;91858.00;;;27.00
7882;BMP180;3986;41.884;23.466;2022-08-19T18:58:02;91860.00;;;26.90
7882;BMP180;3986;41.884;23.466;2022-08-19T19:00:30;91869.00;;;27.10
7882;BMP180;3986;41.884;23.466;2022-08-19T19:02:58;91876.00;;;27.10
7882;BMP180;3986;41.884;23.466;2022-08-19T19:05:25;91876.00;;;26.90
7882;BMP180;3986;41.884;23.466;2022-08-19T19:07:52;91877.00;;;26.90
7882;BMP180;3986;41.884;23.466;2022-08-19T19:10:19;91880.00;;;27.20
7882;BMP180;3986;41.884;23.466;2022-08-19T19:12:46;91882.00;;;26.60
7882;BMP180;3986;41.884;23.466;2022-08-19T19:15:14;91885.00;;;26.60
7882;BMP180;3986;41.884;23.466;2022-08-19T19:17:42;91902.00;;;26.60
7882;BMP180;3986;41.884;23.466;2022-08-19T19:20:09;91897.00;;;26.50
7882;BMP180;3986;41.884;23.466;2022-08-19T19:22:36;91896.00;;;26.50
7882;BMP180;3986;41.884;23.466;2022-08-19T19:25:03;91901.00;;;26.40
7882;BMP180;3986;41.884;23.466;2022-08-19T19:27:32;91896.00;;;26.40
7882;BMP180;3986;41.884;23.466;2022-08-19T19:29:59;91908.00;;;26.30
7882;BMP180;3986;41.884;23.466;2022-08-19T19:32:28;91907.00;;;26.30
7882;BMP180;3986;41.884;23.466;2022-08-19T19:35:00;91920.00;;;26.00
7882;BMP180;3986;41.884;23.466;2022-08-19T19:37:26;91916.00;;;25.90
7882;BMP180;3986;41.884;23.466;2022-08-19T19:39:53;91910.00;;;25.70
7882;BMP180;3986;41.884;23.466;2022-08-19T19:42:22;91915.00;;;25.90
7882;BMP180;3986;41.884;23.466;2022-08-19T19:44:52;91914.00;;;25.50
7882;BMP180;3986;41.884;23.466;2022-08-19T19:47:19;91910.00;;;25.70
7882;BMP180;3986;41.884;23.466;2022-08-19T19:49:52;91914.00;;;25.30
7882;BMP180;3986;41.884;23.466;2022-08-19T19:52:21;91910.00;;;25.40
7882;BMP180;3986;41.884;23.466;2022-08-19T19:54:51;91917.00;;;25.50
7882;BMP180;3986;41.884;23.466;2022-08-19T19:57:18;91917.00;;;25.10
7882;BMP180;3986;41.884;23.466;2022-08-19T19:59:48;91869.00;;;24.70
7882;BMP180;3986;41.884;23.466;2022-08-19T20:02:14;91921.00;;;24.80
7882;BMP180;3986;41.884;23.466;2022-08-19T20:04:41;91921.00;;;24.40
7882;BMP180;3986;41.884;23.466;2022-08-19T20:07:08;91902.00;;;24.10
7882;BMP180;3986;41.884;23.466;2022-08-19T20:09:36;91932.00;;;24.30
7882;BMP180;3986;41.884;23.466;2022-08-19T20:12:03;91926.00;;;24.00
7882;BMP180;3986;41.884;23.466;2022-08-19T20:14:32;91930.00;;;24.60
7882;BMP180;3986;41.884;23.466;2022-08-19T20:17:01;91922.00;;;24.70
7882;BMP180;3986;41.884;23.466;2022-08-19T20:19:30;91930.00;;;24.20
7882;BMP180;3986;41.884;23.466;2022-08-19T20:22:02;91930.00;;;24.00
7882;BMP180;3986;41.884;23.466;2022-08-19T20:24:33;91932.00;;;23.50
7882;BMP180;3986;41.884;23.466;2022-08-19T20:27:03;91930.00;;;23.70
7882;BMP180;3986;41.884;23.466;2022-08-19T20:29:30;91937.00;;;24.30